Time;durP1;ratioP1;P1;durP2;ratioP2;P2;SDS_P1;SDS_P2;PMS_P1;PMS_P2;Temp;Humidity;BMP_temperature;BMP_pressure;BME280_temperature;BME280_humidity;BME280_pressure;Samples;Min_cycle;Max_cycle;Signal;HPM_P1;HPM_P2
2022/05/22 00:00:43;;;;;;;8.32;2.33;;;;;;;14.84;60.83;100134.16;4974309;28;20109;-88
2022/05/22 00:03:10;;;;;;;11.02;2.10;;;;;;;14.83;60.86;100140.38;4973027;28;20046;-88
2022/05/22 00:05:36;;;;;;;9.70;2.05;;;;;;;14.81;61.02;100135.19;4974205;28;20066;-86
2022/05/22 00:08:03;;;;;;;6.75;1.88;;;;;;;14.81;60.99;100134.34;4974421;28;20050;-84
2022/05/22 00:10:30;;;;;;;6.32;1.70;;;;;;;14.81;61.02;100134.34;4973768;28;20519;-88
2022/05/22 00:12:57;;;;;;;6.60;2.00;;;;;;;14.80;61.11;100125.56;4974288;28;20077;-88
2022/05/22 00:15:23;;;;;;;6.25;1.50;;;;;;;14.80;61.22;100127.38;4959333;28;20058;-83
2022/05/22 00:17:50;;;;;;;5.65;1.75;;;;;;;14.79;61.24;100123.00;4957650;28;20470;-85
2022/05/22 00:20:17;;;;;;;7.10;1.90;;;;;;;14.78;61.21;100121.31;4974683;28;20055;-84
2022/05/22 00:22:44;;;;;;;7.15;2.00;;;;;;;14.77;61.35;100115.16;4974648;28;20105;-82
2022/05/22 00:25:11;;;;;;;4.40;1.73;;;;;;;14.77;61.53;100127.56;4974440;28;20137;-84
2022/05/22 00:27:40;;;;;;;6.55;2.22;;;;;;;14.77;61.61;100123.09;4973252;28;20117;-83
2022/05/22 00:30:08;;;;;;;7.60;1.83;;;;;;;14.78;61.49;100126.63;4974199;28;20117;-82
2022/05/22 00:32:35;;;;;;;7.60;1.98;;;;;;;14.80;61.65;100130.03;4973747;28;20109;-84
2022/05/22 00:35:03;;;;;;;6.47;1.80;;;;;;;14.80;61.62;100114.13;4973599;28;20105;-83
2022/05/22 00:37:30;;;;;;;9.15;2.08;;;;;;;14.80;61.48;100114.13;4973141;28;20051;-83
2022/05/22 00:39:57;;;;;;;5.95;1.95;;;;;;;14.79;61.63;100121.22;4973037;28;20054;-84
2022/05/22 00:42:24;;;;;;;6.93;1.83;;;;;;;14.80;61.47;100120.25;4955631;28;20082;-83
2022/05/22 00:44:53;;;;;;;7.20;2.13;;;;;;;14.79;61.50;100129.16;4956116;28;20073;-84
2022/05/22 00:47:21;;;;;;;7.40;2.20;;;;;;;14.80;61.59;100137.97;4955138;28;20066;-83
2022/05/22 00:49:49;;;;;;;5.88;2.10;;;;;;;14.78;61.61;100132.78;4972366;28;20090;-84
2022/05/22 00:52:27;;;;;;;7.15;1.90;;;;;;;14.74;61.14;100139.19;4971028;28;20473;-84
2022/05/22 00:55:10;;;;;;;4.82;1.65;;;;;;;14.76;61.29;100134.66;4955339;28;20058;-84
2022/05/22 00:57:50;;;;;;;9.07;2.08;;;;;;;14.72;60.82;100133.16;4971216;28;20050;-83
2022/05/22 01:00:24;;;;;;;6.78;1.88;;;;;;;14.72;60.89;100131.34;4972150;28;20051;-84
2022/05/22 01:05:37;;;;;;;12.30;2.47;;;;;;;14.69;61.64;100110.34;4972309;28;20424;-84
2022/05/22 01:08:05;;;;;;;11.57;2.50;;;;;;;14.68;61.84;100116.63;4972103;28;20105;-83
2022/05/22 01:10:40;;;;;;;11.23;2.17;;;;;;;14.64;61.54;100111.63;4954704;28;20058;-84
2022/05/22 01:13:07;;;;;;;10.32;2.22;;;;;;;14.66;61.97;100122.97;4972214;28;20101;-84
2022/05/22 01:15:34;;;;;;;9.95;2.10;;;;;;;14.65;62.18;100110.69;4954971;28;20050;-84
2022/05/22 01:18:01;;;;;;;4.22;1.80;;;;;;;14.63;62.15;100105.50;4972209;28;20554;-85
2022/05/22 01:20:27;;;;;;;7.15;2.15;;;;;;;14.62;62.20;100101.16;4971584;28;20046;-83
2022/05/22 01:22:54;;;;;;;8.70;2.05;;;;;;;14.60;61.98;100103.03;4954799;28;20424;-84
2022/05/22 01:25:20;;;;;;;8.80;2.15;;;;;;;14.58;61.95;100099.66;4972303;28;20492;-83
2022/05/22 01:27:47;;;;;;;11.60;2.55;;;;;;;14.56;62.18;100096.25;4971949;28;20058;-83
2022/05/22 01:30:20;;;;;;;8.25;2.17;;;;;;;14.53;62.23;100097.31;4970621;28;20109;-83
2022/05/22 01:32:48;;;;;;;16.23;2.45;;;;;;;14.52;62.26;100092.97;4970608;28;20050;-83
2022/05/22 01:35:18;;;;;;;11.05;2.53;;;;;;;14.51;62.24;100085.13;4971688;28;20462;-83
2022/05/22 01:37:45;;;;;;;10.88;2.25;;;;;;;14.51;62.49;100091.28;4972330;28;20101;-83
2022/05/22 01:40:12;;;;;;;6.47;1.98;;;;;;;14.49;62.32;100087.03;4970647;28;20089;-84
2022/05/22 01:42:40;;;;;;;7.07;2.28;;;;;;;14.48;62.33;100093.28;4954685;28;20204;-83
2022/05/22 01:45:08;;;;;;;8.48;2.17;;;;;;;14.46;62.38;100090.75;4972123;28;20054;-84
2022/05/22 01:47:36;;;;;;;12.68;2.38;;;;;;;14.44;62.51;100092.66;4971636;28;20106;-85
2022/05/22 01:50:05;;;;;;;7.10;1.75;;;;;;;14.45;62.64;100099.66;4971599;28;20105;-83
2022/05/22 01:52:31;;;;;;;11.40;2.47;;;;;;;14.42;62.62;100100.69;4971428;28;20043;-86
2022/05/22 01:54:58;;;;;;;10.75;2.88;;;;;;;14.41;62.55;100098.16;4957814;28;20051;-84
2022/05/22 01:57:25;;;;;;;6.85;2.03;;;;;;;14.40;62.73;100101.75;4958563;28;20081;-83
2022/05/22 01:59:52;;;;;;;9.27;2.15;;;;;;;14.40;62.46;100099.09;4974563;28;20051;-84
2022/05/22 02:02:18;;;;;;;3.75;1.48;;;;;;;14.38;62.69;100101.00;4957551;28;20583;-84
2022/05/22 02:04:45;;;;;;;6.55;2.20;;;;;;;14.37;62.75;100109.91;4975454;28;20054;-84
2022/05/22 02:09:56;;;;;;;6.75;2.10;;;;;;;14.31;62.62;100119.09;4976011;28;20051;-84
2022/05/22 02:12:23;;;;;;;6.03;1.80;;;;;;;14.28;62.87;100109.56;4975370;28;20051;-84
2022/05/22 02:14:50;;;;;;;11.00;2.55;;;;;;;14.26;62.90;100116.78;4974055;28;20150;-85
2022/05/22 02:17:16;;;;;;;7.35;2.22;;;;;;;14.23;62.73;100116.97;4975171;28;20051;-84
2022/05/22 02:19:43;;;;;;;5.10;1.70;;;;;;;14.21;62.97;100116.25;4958423;28;20059;-84
2022/05/22 02:22:09;;;;;;;11.57;2.63;;;;;;;14.18;63.02;100106.72;4974885;28;20059;-84
2022/05/22 02:24:36;;;;;;;9.50;2.20;;;;;;;14.17;63.21;100107.63;4974159;28;20114;-86
2022/05/22 02:27:06;;;;;;;5.15;2.15;;;;;;;14.15;63.10;100095.47;4958165;28;20085;-83
2022/05/22 02:29:36;;;;;;;10.73;2.70;;;;;;;14.12;62.99;100093.00;4975253;28;20062;-83
2022/05/22 02:32:03;;;;;;;8.15;2.63;;;;;;;14.13;63.28;100089.44;4957656;28;20043;-85
2022/05/22 02:34:30;;;;;;;7.25;2.35;;;;;;;14.11;63.36;100094.81;4976295;28;20063;-83
2022/05/22 02:36:57;;;;;;;9.30;2.40;;;;;;;14.10;63.28;100089.63;4958723;28;20051;-84
2022/05/22 02:39:23;;;;;;;10.98;2.78;;;;;;;14.09;63.39;100093.22;4959142;28;20051;-87
2022/05/22 02:41:50;;;;;;;6.68;2.25;;;;;;;14.05;63.11;100097.84;4976224;28;20054;-85
2022/05/22 02:44:16;;;;;;;8.23;2.45;;;;;;;14.02;62.86;100098.91;4958940;28;20382;-85
2022/05/22 02:46:43;;;;;;;10.70;2.65;;;;;;;13.99;62.89;100098.28;4976793;28;20055;-86
2022/05/22 02:49:10;;;;;;;10.10;2.33;;;;;;;13.94;63.32;100093.28;4958937;28;20055;-85
2022/05/22 02:51:37;;;;;;;7.15;2.58;;;;;;;13.91;63.55;100096.97;4958771;28;20113;-85
2022/05/22 02:54:04;;;;;;;10.45;2.72;;;;;;;13.87;63.72;100084.88;4975034;28;20054;-85
2022/05/22 02:56:30;;;;;;;10.68;2.40;;;;;;;13.87;63.71;100092.00;4976453;28;20563;-87
2022/05/22 02:58:58;;;;;;;8.18;2.55;;;;;;;13.84;63.88;100084.25;4975209;28;20055;-84
2022/05/22 03:01:25;;;;;;;6.35;2.65;;;;;;;13.83;63.86;100088.69;4958468;28;20395;-87
2022/05/22 03:03:51;;;;;;;9.07;2.83;;;;;;;13.83;63.78;100091.34;4976153;28;20799;-87
2022/05/22 03:09:05;;;;;;;9.43;2.67;;;;;;;13.80;63.77;100084.44;4976310;28;20054;-84
2022/05/22 03:11:31;;;;;;;11.90;2.47;;;;;;;13.79;63.92;100074.81;4976274;28;20054;-85
2022/05/22 03:13:59;;;;;;;6.80;2.17;;;;;;;13.76;63.99;100059.13;4959122;28;20054;-84
2022/05/22 03:16:25;;;;;;;7.63;2.25;;;;;;;13.75;63.93;100059.25;4975849;28;20051;-84
2022/05/22 03:18:52;;;;;;;6.38;2.40;;;;;;;13.75;64.31;100061.91;4958269;28;20093;-86
2022/05/22 03:21:18;;;;;;;9.30;2.80;;;;;;;13.74;64.40;100049.59;4975936;28;20055;-86
2022/05/22 03:23:45;;;;;;;9.38;2.78;;;;;;;13.73;64.26;100045.28;4958762;28;20563;-87
2022/05/22 03:26:11;;;;;;;8.60;2.83;;;;;;;13.72;64.24;100047.06;4959127;28;20508;-84
2022/05/22 03:28:38;;;;;;;12.13;2.85;;;;;;;13.72;64.52;100043.59;4974410;28;20090;-84
2022/05/22 03:31:05;;;;;;;9.05;2.25;;;;;;;13.70;64.23;100051.63;4974174;28;20098;-87
2022/05/22 03:33:31;;;;;;;6.57;2.35;;;;;;;13.71;64.11;100057.78;4974947;28;20058;-84
2022/05/22 03:35:58;;;;;;;3.20;1.63;;;;;;;13.68;64.26;100058.78;4975648;28;20059;-86
2022/05/22 03:38:25;;;;;;;5.60;1.85;;;;;;;13.67;64.04;100057.09;4975928;28;20489;-87
2022/05/22 03:40:52;;;;;;;10.43;2.10;;;;;;;13.64;64.08;100060.81;4958331;28;20051;-87
2022/05/22 03:43:18;;;;;;;7.68;2.10;;;;;;;13.61;64.28;100058.34;4976899;28;20051;-85
2022/05/22 03:45:45;;;;;;;7.57;2.45;;;;;;;13.60;64.28;100061.94;4976746;28;20055;-87
2022/05/22 03:48:12;;;;;;;7.15;2.45;;;;;;;13.59;64.39;100049.69;4976203;28;20110;-87
2022/05/22 03:50:39;;;;;;;10.85;2.35;;;;;;;13.58;64.51;100057.69;4958732;28;20054;-86
2022/05/22 03:53:06;;;;;;;7.13;2.20;;;;;;;13.58;64.84;100060.34;4974782;28;20058;-85
2022/05/22 03:55:32;;;;;;;14.65;2.80;;;;;;;13.59;64.95;100057.59;4958745;28;20097;-85
2022/05/22 03:57:59;;;;;;;8.65;2.28;;;;;;;13.60;64.79;100051.38;4976096;28;20062;-86
2022/05/22 04:00:26;;;;;;;6.32;2.42;;;;;;;13.61;64.98;100050.41;4975532;28;20050;-85
2022/05/22 04:02:53;;;;;;;8.50;2.35;;;;;;;13.62;64.95;100061.84;4975697;28;20046;-85
2022/05/22 04:05:20;;;;;;;7.78;2.00;;;;;;;13.64;64.98;100062.63;4976074;28;20531;-89
2022/05/22 04:07:48;;;;;;;7.88;2.22;;;;;;;13.64;64.87;100058.16;4974847;28;20497;-86
2022/05/22 04:10:17;;;;;;;8.77;2.05;;;;;;;13.65;64.92;100059.84;4975492;28;20457;-87
2022/05/22 04:12:44;;;;;;;14.63;2.88;;;;;;;13.68;64.94;100053.50;4976580;28;20113;-88
2022/05/22 04:15:14;;;;;;;6.47;1.70;;;;;;;13.70;65.20;100056.06;4974780;28;20684;-84
2022/05/22 04:17:41;;;;;;;10.20;2.38;;;;;;;13.73;65.23;100055.84;4975983;28;20449;-87
2022/05/22 04:20:08;;;;;;;5.20;1.83;;;;;;;13.74;65.23;100046.97;4976261;28;20051;-86
2022/05/22 04:25:11;;;;;;;9.88;2.47;;;;;;;13.76;65.14;100047.72;4976673;28;20050;-84
2022/05/22 04:25:22;;;;;;;10.63;1.92;;;;;;;13.79;65.14;100051.00;4976789;28;20055;-84
2022/05/22 04:27:49;;;;;;;7.05;2.13;;;;;;;13.83;65.53;100053.47;4976723;28;20114;-87
2022/05/22 04:30:19;;;;;;;11.63;2.58;;;;;;;13.86;65.38;100056.75;4975017;28;20050;-87
2022/05/22 04:32:48;;;;;;;12.75;2.70;;;;;;;13.90;65.50;100067.97;4976112;28;20084;-88
2022/05/22 04:35:15;;;;;;;7.70;2.00;;;;;;;13.92;65.19;100064.28;4976393;28;20575;-88
2022/05/22 04:37:41;;;;;;;9.65;2.35;;;;;;;13.96;65.57;100056.13;4976378;28;20051;-86
2022/05/22 04:40:10;;;;;;;7.68;2.03;;;;;;;13.99;65.61;100058.56;4975708;28;20069;-82
2022/05/22 04:42:37;;;;;;;7.10;2.42;;;;;;;14.03;65.78;100062.72;4972563;28;20449;-85
2022/05/22 04:45:06;;;;;;;13.10;2.80;;;;;;;14.05;65.58;100068.75;4972990;28;20472;-86
2022/05/22 04:47:38;;;;;;;9.05;2.13;;;;;;;14.06;65.22;100062.53;4971212;28;20524;-87
2022/05/22 04:50:06;;;;;;;11.40;2.50;;;;;;;14.11;65.35;100065.72;4972863;28;20053;-82
2022/05/22 04:52:33;;;;;;;8.30;2.47;;;;;;;14.14;65.38;100068.16;4972695;28;20054;-85
2022/05/22 04:55:00;;;;;;;11.23;2.55;;;;;;;14.17;65.40;100059.97;4972890;28;20129;-86
2022/05/22 04:57:26;;;;;;;19.08;2.65;;;;;;;14.21;65.49;100065.94;4972825;28;20058;-85
2022/05/22 04:59:53;;;;;;;6.85;1.92;;;;;;;14.24;65.45;100067.53;4956022;28;20051;-87
2022/05/22 05:02:22;;;;;;;7.25;2.10;;;;;;;14.26;65.38;100055.88;4972195;28;20109;-85
2022/05/22 05:04:52;;;;;;;11.60;2.38;;;;;;;14.29;65.21;100060.97;4973064;28;20437;-85
2022/05/22 05:07:19;;;;;;;9.80;2.17;;;;;;;14.34;65.62;100050.06;4972556;28;20062;-84
2022/05/22 05:09:46;;;;;;;9.10;2.20;;;;;;;14.38;65.52;100045.38;4972614;28;20055;-86
2022/05/22 05:12:13;;;;;;;10.15;2.72;;;;;;;14.41;65.48;100048.69;4973540;28;20077;-84
2022/05/22 05:14:39;;;;;;;9.70;2.45;;;;;;;14.45;65.57;100042.22;4956769;28;20058;-85
2022/05/22 05:17:11;;;;;;;9.23;3.17;;;;;;;14.49;65.21;100047.28;4973218;28;20054;-84
2022/05/22 05:19:37;;;;;;;8.00;2.38;;;;;;;14.54;65.72;100043.38;4957829;28;20047;-87
2022/05/22 05:22:04;;;;;;;7.95;2.42;;;;;;;14.58;65.63;100047.50;4973614;28;20555;-84
2022/05/22 05:24:31;;;;;;;7.22;2.20;;;;;;;14.61;65.76;100050.91;4975513;28;20113;-87
2022/05/22 05:26:58;;;;;;;7.03;2.55;;;;;;;14.65;65.75;100057.69;4975339;28;20101;-88
2022/05/22 05:29:44;;;;;;;6.60;2.83;;;;;;;14.68;65.77;100050.38;4975846;28;20058;-87
2022/05/22 05:32:11;;;;;;;10.35;2.90;;;;;;;14.71;65.70;100050.19;4959623;28;20078;-86
2022/05/22 05:34:38;;;;;;;7.20;2.42;;;;;;;14.74;65.73;100051.75;4977369;28;20481;-87
2022/05/22 05:37:04;;;;;;;8.85;2.55;;;;;;;14.78;65.61;100052.41;4978089;28;20054;-87
2022/05/22 05:39:32;;;;;;;11.18;2.83;;;;;;;14.82;65.54;100053.91;4977645;28;20059;-85
2022/05/22 05:41:58;;;;;;;10.20;2.33;;;;;;;14.87;65.58;100046.47;4976892;28;20050;-85
2022/05/22 05:44:25;;;;;;;12.65;2.50;;;;;;;14.91;65.66;100047.13;4959865;28;20086;-85
2022/05/22 05:46:52;;;;;;;10.38;2.35;;;;;;;14.94;65.25;100041.56;4976639;28;20051;-86
2022/05/22 05:49:18;;;;;;;12.30;2.85;;;;;;;14.98;65.02;100041.25;4977188;28;20054;-87
2022/05/22 05:51:45;;;;;;;9.23;2.53;;;;;;;15.03;65.06;100040.91;4977499;28;20050;-85
2022/05/22 05:54:12;;;;;;;7.60;2.47;;;;;;;15.08;65.10;100049.41;4977115;28;20059;-86
2022/05/22 05:56:40;;;;;;;9.88;2.58;;;;;;;15.14;65.06;100055.22;4977883;28;20513;-84
2022/05/22 05:59:08;;;;;;;8.52;2.45;;;;;;;15.18;65.16;100043.44;4977764;28;20058;-84
2022/05/22 06:01:35;;;;;;;8.00;2.80;;;;;;;15.22;64.69;100045.75;4977661;28;20046;-88
2022/05/22 06:04:03;;;;;;;16.50;2.58;;;;;;;15.27;64.86;100045.44;4977540;28;20101;-86
2022/05/22 06:06:30;;;;;;;9.07;2.30;;;;;;;15.31;64.54;100040.75;4960524;28;20062;-88
2022/05/22 06:08:56;;;;;;;7.25;2.58;;;;;;;15.35;64.51;100031.59;4977566;28;20551;-87
2022/05/22 06:11:23;;;;;;;8.95;2.13;;;;;;;15.40;64.22;100028.63;4977546;28;20058;-88
2022/05/22 06:13:53;;;;;;;9.52;2.55;;;;;;;15.43;64.49;100026.59;4978155;28;20058;-87
2022/05/22 06:16:19;;;;;;;9.13;2.95;;;;;;;15.46;64.36;100026.38;4977354;28;20496;-84
2022/05/22 06:18:46;;;;;;;9.75;2.85;;;;;;;15.49;64.64;100023.50;4976284;28;20085;-85
2022/05/22 06:21:18;;;;;;;9.88;2.42;;;;;;;15.51;64.11;100028.66;4960106;28;20104;-87
2022/05/22 06:23:45;;;;;;;9.63;3.15;;;;;;;15.58;64.31;100029.91;4977644;28;20055;-88
2022/05/22 06:26:14;;;;;;;11.15;2.45;;;;;;;15.60;64.13;100028.00;4976911;28;20055;-83
2022/05/22 06:28:41;;;;;;;12.55;2.65;;;;;;;15.63;63.81;100034.91;4976576;28;20055;-86
2022/05/22 06:31:08;;;;;;;9.68;2.70;;;;;;;15.65;63.55;100035.63;4960433;28;20058;-84
2022/05/22 06:33:35;;;;;;;13.05;2.40;;;;;;;15.68;63.63;100035.41;4976540;28;20046;-88
2022/05/22 06:36:14;;;;;;;11.90;2.85;;;;;;;15.67;62.49;100039.03;4977422;28;20058;-87
2022/05/22 06:41:26;;;;;;;6.45;1.98;;;;;;;15.74;63.22;100034.09;4981706;28;20046;-83
2022/05/22 06:43:53;;;;;;;8.00;2.40;;;;;;;15.75;63.15;100041.09;4981264;28;20117;-86
2022/05/22 06:46:26;;;;;;;8.18;2.55;;;;;;;15.74;62.26;100040.22;4965341;28;20153;-88
2022/05/22 06:48:53;;;;;;;9.05;2.53;;;;;;;15.79;63.21;100042.56;4981772;28;20587;-87
2022/05/22 06:51:19;;;;;;;6.80;2.30;;;;;;;15.81;63.14;100039.78;4981864;28;20097;-87
2022/05/22 06:53:46;;;;;;;4.70;2.20;;;;;;;15.84;63.46;100047.50;4981640;28;20050;-87
2022/05/22 06:56:12;;;;;;;8.73;2.50;;;;;;;15.88;63.67;100047.19;4981253;28;20050;-86
2022/05/22 06:58:39;;;;;;;12.20;2.67;;;;;;;15.93;63.71;100048.63;4980801;28;20086;-85
2022/05/22 07:01:05;;;;;;;10.38;2.72;;;;;;;15.97;63.26;100050.13;4982385;28;20055;-86
2022/05/22 07:03:38;;;;;;;6.32;2.38;;;;;;;16.01;63.16;100057.75;4982213;28;20055;-87
2022/05/22 07:06:05;;;;;;;7.45;2.10;;;;;;;16.04;63.22;100056.69;4981815;28;20054;-86
2022/05/22 07:08:31;;;;;;;8.75;2.38;;;;;;;16.08;63.10;100049.31;4980292;28;20050;-87
2022/05/22 07:13:43;;;;;;;9.43;2.40;;;;;;;16.18;62.83;100042.34;4976378;28;20051;-83
2022/05/22 07:16:10;;;;;;;11.48;2.58;;;;;;;16.23;63.00;100036.69;4975992;28;20054;-83
2022/05/22 07:18:50;;;;;;;8.68;2.20;;;;;;;16.31;63.00;100046.72;4960197;28;20146;-84
2022/05/22 07:21:17;;;;;;;7.28;2.60;;;;;;;16.37;63.07;100048.91;4974881;28;20449;-84
2022/05/22 07:23:43;;;;;;;7.25;2.25;;;;;;;16.41;62.62;100051.22;4958117;28;20050;-83
2022/05/22 07:26:12;;;;;;;8.40;2.33;;;;;;;16.48;62.45;100053.41;4975653;28;20105;-84
2022/05/22 07:28:38;;;;;;;6.68;2.22;;;;;;;16.52;62.27;100049.56;4974194;28;20058;-84
2022/05/22 07:31:13;;;;;;;10.27;2.40;;;;;;;16.54;60.67;100053.78;4957827;28;20054;-84
2022/05/22 07:33:39;;;;;;;11.57;2.92;;;;;;;16.61;62.31;100040.00;4958081;28;20118;-83
2022/05/22 07:36:06;;;;;;;10.20;2.55;;;;;;;16.66;62.10;100046.66;4958062;28;20054;-84
2022/05/22 07:38:32;;;;;;;5.15;2.20;;;;;;;16.71;61.90;100042.78;4974432;28;20066;-85
2022/05/22 07:40:59;;;;;;;4.57;1.55;;;;;;;16.77;61.79;100047.63;4973672;28;20059;-84
2022/05/22 07:43:25;;;;;;;8.13;2.47;;;;;;;16.83;61.52;100047.16;4974664;28;20051;-84
2022/05/22 07:45:53;;;;;;;5.63;1.85;;;;;;;16.90;61.66;100052.81;4974799;28;20105;-86
2022/05/22 07:48:21;;;;;;;7.07;1.85;;;;;;;16.98;61.70;100046.88;4958387;28;20098;-84
2022/05/22 07:50:54;;;;;;;7.93;1.90;;;;;;;17.04;60.98;100041.06;4973915;28;20050;-83
2022/05/22 07:53:21;;;;;;;6.72;1.95;;;;;;;17.17;62.49;100036.50;4975170;28;20105;-86
2022/05/22 07:55:47;;;;;;;8.13;2.00;;;;;;;17.28;62.40;100034.78;4973153;28;20464;-83
2022/05/22 07:58:14;;;;;;;7.97;2.13;;;;;;;17.37;61.99;100026.06;4972943;28;20058;-84
2022/05/22 08:00:40;;;;;;;7.10;2.00;;;;;;;17.50;61.61;100027.72;4973899;28;20109;-86
2022/05/22 08:03:12;;;;;;;6.72;1.85;;;;;;;17.58;60.70;100026.09;4974416;28;20057;-85
2022/05/22 08:05:41;;;;;;;;;;;;;;;17.69;61.15;100025.22;4974221;28;20059;-84
2022/05/22 08:08:08;;;;;;;4.53;1.52;;;;;;;17.86;61.11;100027.47;4974315;28;19981;-84
2022/05/22 08:10:37;;;;;;;5.43;1.70;;;;;;;17.92;59.62;100026.94;4973959;28;20476;-84
2022/05/22 08:13:05;;;;;;;7.70;1.50;;;;;;;17.96;59.89;100028.38;4972241;28;20098;-84
2022/05/22 08:15:34;;;;;;;10.07;2.65;;;;;;;18.00;59.49;100026.28;4973033;28;20055;-84
2022/05/22 08:18:00;;;;;;;5.28;1.83;;;;;;;18.05;60.43;100029.44;4956946;28;20069;-85
2022/05/22 08:20:28;;;;;;;8.65;1.80;;;;;;;18.12;60.46;100021.78;4973928;28;20125;-86
2022/05/22 08:22:58;;;;;;;10.20;2.45;;;;;;;18.22;60.50;100022.69;4956487;28;20051;-85
2022/05/22 08:25:27;;;;;;;6.88;1.90;;;;;;;18.34;61.14;100013.66;4957009;28;20046;-84
2022/05/22 08:27:56;;;;;;;5.05;2.13;;;;;;;18.51;60.73;100014.00;4974133;28;20055;-84
2022/05/22 08:30:26;;;;;;;10.30;2.22;;;;;;;18.65;60.03;100017.31;4973331;28;20058;-84
2022/05/22 08:32:53;;;;;;;6.03;1.50;;;;;;;18.78;59.92;100015.25;4973656;28;20075;-85
2022/05/22 08:35:24;;;;;;;5.45;1.80;;;;;;;18.87;57.54;100024.25;4975312;28;20086;-87
2022/05/22 08:37:51;;;;;;;7.35;1.52;;;;;;;18.95;58.39;100018.25;4974952;28;20097;-84
2022/05/22 08:40:20;;;;;;;4.45;1.55;;;;;;;18.98;57.87;100015.28;4973848;28;20050;-85
2022/05/22 08:42:54;;;;;;;8.35;2.03;;;;;;;19.00;57.66;100010.69;4973475;28;20105;-85
2022/05/22 08:45:28;;;;;;;4.40;1.77;;;;;;;19.06;56.11;100014.66;4956751;28;20113;-84
2022/05/22 08:48:10;;;;;;;7.75;1.90;;;;;;;19.14;56.48;100012.16;4956518;28;20051;-84
2022/05/22 08:50:37;;;;;;;8.73;1.75;;;;;;;19.32;58.44;100014.16;4973242;28;20059;-83
2022/05/22 08:53:14;;;;;;;13.57;2.25;;;;;;;19.45;56.66;100000.53;4972087;28;20097;-85
2022/05/22 08:58:57;;;;;;;7.45;1.70;;;;;;;19.83;57.71;100008.66;4973240;28;20058;-85
2022/05/22 09:01:51;;;;;;;6.65;2.00;;;;;;;20.01;56.25;100011.50;4973150;28;20057;-83
2022/05/22 09:04:35;;;;;;;6.00;1.55;;;;;;;20.19;56.80;100000.94;4973204;28;20117;-83
2022/05/22 09:07:21;;;;;;;6.28;1.88;;;;;;;20.34;56.55;99995.97;4956140;28;20110;-83
2022/05/22 09:10:00;;;;;;;8.18;2.10;;;;;;;20.50;55.89;100000.69;4973424;28;20050;-84
2022/05/22 09:12:58;;;;;;;7.80;2.10;;;;;;;20.60;55.01;99997.13;4971879;28;20050;-84
2022/05/22 09:15:52;;;;;;;6.60;1.77;;;;;;;20.73;57.26;99991.44;4958750;28;20082;-85
2022/05/22 09:18:23;;;;;;;5.57;1.98;;;;;;;20.79;54.73;99990.84;4973331;28;20105;-84
2022/05/22 09:20:50;;;;;;;5.60;1.60;;;;;;;20.86;55.52;99991.91;4973060;28;20105;-83
2022/05/22 09:23:25;;;;;;;7.60;1.95;;;;;;;20.89;55.02;99997.00;4972965;28;20046;-86
2022/05/22 09:26:07;;;;;;;7.45;1.70;;;;;;;20.86;53.75;100001.78;4972982;28;20054;-83
2022/05/22 09:29:11;;;;;;;8.43;2.50;;;;;;;20.79;53.11;99991.69;4972695;28;20054;-85
2022/05/22 09:31:47;;;;;;;7.22;2.05;;;;;;;20.84;53.97;99991.25;4972774;28;20051;-83
2022/05/22 09:34:14;;;;;;;7.18;1.98;;;;;;;20.89;55.33;99983.63;4955434;28;20114;-84
2022/05/22 09:36:52;;;;;;;8.25;2.42;;;;;;;20.94;54.12;99977.84;4972940;28;20117;-84
2022/05/22 09:39:46;;;;;;;7.05;2.05;;;;;;;21.06;53.98;99983.81;4972386;28;20323;-84
2022/05/22 09:42:50;;;;;;;8.25;2.33;;;;;;;21.16;53.13;99987.25;4972295;28;20397;-84
2022/05/22 09:45:29;;;;;;;;;;;;;;;21.28;54.98;99982.56;4973484;28;20051;-83
2022/05/22 09:48:14;;;;;;;9.40;1.50;;;;;;;21.33;52.47;99976.72;4973381;28;19933;-84
2022/05/22 09:51:07;;;;;;;5.45;1.52;;;;;;;21.30;52.29;99980.56;4972471;28;20067;-85
2022/05/22 09:53:50;;;;;;;7.85;1.75;;;;;;;21.26;50.82;99976.50;4973118;28;20184;-83
2022/05/22 09:56:44;;;;;;;6.43;2.25;;;;;;;21.27;54.01;99969.31;4973446;28;20093;-83
2022/05/22 09:59:40;;;;;;;9.73;1.90;;;;;;;21.24;53.21;99973.16;4974378;28;20086;-83
2022/05/22 10:02:36;;;;;;;5.43;1.98;;;;;;;21.32;52.72;99959.00;4956736;28;20058;-83
2022/05/22 10:05:15;;;;;;;5.97;1.75;;;;;;;21.47;52.76;99957.47;4973560;28;20054;-82
2022/05/22 10:07:55;;;;;;;7.95;2.17;;;;;;;21.63;52.36;99960.44;4973934;28;20511;-87
2022/05/22 10:10:50;;;;;;;6.07;1.73;;;;;;;21.80;52.75;99964.09;4974037;28;20125;-86
2022/05/22 10:13:34;;;;;;;4.72;1.50;;;;;;;21.98;52.97;99964.06;4973967;28;20070;-85
2022/05/22 10:16:24;;;;;;;7.20;2.08;;;;;;;22.15;51.83;99956.97;4959798;28;20054;-84
2022/05/22 10:19:14;;;;;;;6.10;2.00;;;;;;;22.25;51.90;99955.00;4978626;28;20105;-85
2022/05/22 10:21:54;;;;;;;4.30;1.73;;;;;;;22.25;50.76;99946.97;4977697;28;20515;-84
2022/05/22 10:24:55;;;;;;;8.57;2.42;;;;;;;22.22;51.03;99941.94;4960574;28;20143;-84
2022/05/22 10:27:46;;;;;;;10.52;2.47;;;;;;;22.22;51.20;99941.94;4964300;28;20110;-84
2022/05/22 10:30:31;;;;;;;6.78;1.92;;;;;;;22.28;50.72;99937.78;4977476;28;20055;-84
2022/05/22 10:33:07;;;;;;;4.82;1.40;;;;;;;22.40;50.32;99927.59;4977617;28;20055;-84
2022/05/22 10:35:53;;;;;;;5.75;1.88;;;;;;;22.52;50.61;99929.00;4978448;28;20101;-84
2022/05/22 10:38:29;;;;;;;4.15;1.48;;;;;;;22.69;50.27;99928.25;4978579;28;20409;-84
2022/05/22 10:43:46;;;;;;;4.20;1.67;;;;;;;22.85;48.95;99933.66;4977327;28;20493;-84
2022/05/22 10:46:12;;;;;;;5.13;1.73;;;;;;;22.88;49.94;99932.50;4978027;28;20055;-84
2022/05/22 10:48:53;;;;;;;3.70;1.45;;;;;;;22.80;48.01;99927.09;4976641;28;20047;-83
2022/05/22 10:51:24;;;;;;;5.82;2.00;;;;;;;22.81;49.03;99931.47;4977264;28;20058;-83
2022/05/22 10:53:58;;;;;;;5.28;1.80;;;;;;;22.82;48.80;99927.75;4977646;28;20047;-84
2022/05/22 10:56:29;;;;;;;5.07;1.98;;;;;;;22.95;50.51;99924.63;4977587;28;20050;-84
2022/05/22 10:59:00;;;;;;;5.80;1.88;;;;;;;23.22;51.71;99918.13;4975994;28;20109;-83
2022/05/22 11:01:38;;;;;;;7.05;1.63;;;;;;;23.61;50.87;99916.63;4959847;28;20489;-84
2022/05/22 11:04:09;;;;;;;3.95;1.48;;;;;;;24.13;51.73;99913.69;4977236;28;20046;-84
2022/05/22 11:06:39;;;;;;;5.35;2.20;;;;;;;24.64;50.64;99915.19;4977374;28;20046;-84
2022/05/22 11:09:07;;;;;;;5.68;1.52;;;;;;;25.05;48.64;99914.97;4977353;28;20047;-84
2022/05/22 11:11:37;;;;;;;4.10;1.63;;;;;;;25.34;46.53;99904.50;4976835;28;20500;-84
2022/05/22 11:14:06;;;;;;;4.03;1.27;;;;;;;25.62;47.52;99902.06;4977066;28;20053;-84
2022/05/22 11:16:33;;;;;;;4.25;1.45;;;;;;;25.97;48.70;99898.00;4976754;28;20058;-84
2022/05/22 11:19:24;;;;;;;6.03;1.70;;;;;;;26.37;47.77;99893.19;4958903;28;20493;-84
2022/05/22 11:22:27;;;;;;;5.32;1.60;;;;;;;26.90;47.32;99888.56;4967486;28;20110;-85
2022/05/22 11:25:28;;;;;;;6.63;1.48;;;;;;;27.51;46.17;99891.84;4958135;28;20125;-85
2022/05/22 11:28:21;;;;;;;2.80;1.42;;;;;;;28.09;45.26;99888.06;4975152;28;20110;-84
2022/05/22 11:31:09;;;;;;;6.00;1.55;;;;;;;28.64;44.68;99887.28;4957072;28;20059;-86
2022/05/22 11:34:00;;;;;;;2.47;1.30;;;;;;;29.02;44.68;99875.09;4974945;28;20062;-83
2022/05/22 11:36:48;;;;;;;4.35;1.58;;;;;;;29.27;43.17;99866.38;4974589;28;20050;-84
2022/05/22 11:39:26;;;;;;;3.53;1.38;;;;;;;29.44;39.61;99863.19;4974271;28;20043;-84
2022/05/22 11:42:04;;;;;;;2.67;1.30;;;;;;;29.49;40.09;99858.81;4974463;28;20527;-84
2022/05/22 11:45:25;;;;;;;4.30;1.63;;;;;;;29.42;41.38;99854.47;4975034;28;20047;-84
2022/05/22 11:48:29;;;;;;;4.60;1.52;;;;;;;29.35;40.89;99862.59;4895745;29;20114;-84
2022/05/22 11:51:16;;;;;;;3.97;1.33;;;;;;;29.36;40.83;99851.56;4974922;28;20051;-85
2022/05/22 11:53:55;;;;;;;3.38;1.27;;;;;;;29.45;40.88;99854.88;4974457;28;20058;-85
2022/05/22 11:56:56;;;;;;;5.13;1.50;;;;;;;29.33;38.79;99848.41;4974550;28;20062;-84
2022/05/22 11:59:38;;;;;;;3.75;1.35;;;;;;;29.29;38.82;99852.59;4974373;28;20086;-86
2022/05/22 12:02:17;;;;;;;4.10;1.40;;;;;;;29.14;39.00;99856.34;4973442;28;20082;-84
2022/05/22 12:05:11;;;;;;;3.85;1.50;;;;;;;29.22;41.46;99841.75;4954958;29;20043;-85
2022/05/22 12:08:11;;;;;;;3.75;1.42;;;;;;;29.52;42.47;99844.88;4954662;29;20055;-83